82NM weather

Skeen Ranch Airport
Picacho, New Mexico, United States

Public forecast

Using degrees Fahrenheit for public forecast. Weather courtesy of forecast.io.

Closest aviation weather report (METAR) to Skeen Ranch Airport

Closest report is Sierra Blanca Regional Airport, 26.7 nm (49.5 km) NW. Retrieved 2020/01/28 22:35 UTC (0 seconds ago):

KSRR 282235Z AUTO 30009G15KT 10SM CLR 07/M14 A3011 RMK AO2

Closest aviation forecast (TAF) to Skeen Ranch Airport

Closest forecast is Roswell International Air Center Airport, 31.3 nm (58.0 km) ENE. Retrieved 2020/01/28 18:42 UTC (4 hours ago):

TAF KROW 281739Z 2818/2918 35020G28KT P6SM SKC FM282300 36011KT P6SM SKC FM290200 VRB05KT P6SM SKC